JES3048 SABE-SAAR
Flight info
| Callsign | JES3048 |
|---|---|
| Flight time | 0h 32m |
| Altitude | 24000 |
| Route | ATOVO4B ATOVO W5 ESKON |
| Aircraft | A320/M-SDE3FGHIRWY/LB1 |
Departure
| Time | 2026-05-08 21:55 |
|---|---|
| Airport | Aeroparque Jorge Newbery (SABE) |
Arrival
| Time | 2026-05-08 22:27 |
|---|---|
| Airport | Rosario Islas Malvinas International Airport (SAAR) |
| Time | Latitude | Longitude | Altitude | Speed | Heading |
|---|---|---|---|---|---|
| 2026-05-08 21:28 | -34.55887 | -58.41108 | 26 ft | 0 kts | 40° |
| 2026-05-08 21:34 | -34.55887 | -58.41109 | 26 ft | 0 kts | 40° |
| 2026-05-08 21:46 | -34.55889 | -58.41111 | 25 ft | 2 kts | 40° |
| 2026-05-08 21:47 | -34.55907 | -58.41127 | 26 ft | 3 kts | 22° |
| 2026-05-08 21:47 | -34.55927 | -58.41132 | 30 ft | 3 kts | 335° |
| 2026-05-08 21:47 | -34.55937 | -58.41125 | 27 ft | 0 kts | 311° |
| 2026-05-08 21:50 | -34.55922 | -58.41146 | 26 ft | 10 kts | 311° |
| 2026-05-08 21:50 | -34.55858 | -58.41241 | 28 ft | 8 kts | 300° |
| 2026-05-08 21:50 | -34.55885 | -58.41298 | 26 ft | 10 kts | 211° |
| 2026-05-08 21:51 | -34.55934 | -58.41272 | 26 ft | 9 kts | 128° |
| 2026-05-08 21:51 | -34.55985 | -58.41197 | 27 ft | 14 kts | 120° |
| 2026-05-08 21:51 | -34.56052 | -58.41097 | 29 ft | 17 kts | 136° |
| 2026-05-08 21:51 | -34.56135 | -58.40971 | 27 ft | 20 kts | 126° |
| 2026-05-08 21:52 | -34.56170 | -58.40885 | 29 ft | 14 kts | 109° |
| 2026-05-08 21:52 | -34.56210 | -58.40761 | 28 ft | 17 kts | 125° |
| 2026-05-08 21:52 | -34.56283 | -58.40632 | 28 ft | 20 kts | 121° |
| 2026-05-08 21:52 | -34.56344 | -58.40547 | 28 ft | 12 kts | 137° |
| 2026-05-08 21:53 | -34.56413 | -58.40471 | 26 ft | 14 kts | 137° |
| 2026-05-08 21:53 | -34.56491 | -58.40389 | 28 ft | 11 kts | 145° |
| 2026-05-08 21:53 | -34.56555 | -58.40422 | 30 ft | 12 kts | 265° |
| 2026-05-08 21:53 | -34.56537 | -58.40478 | 28 ft | 0 kts | 302° |
| 2026-05-08 21:54 | -34.56503 | -58.40541 | 28 ft | 40 kts | 303° |
| 2026-05-08 21:54 | -34.56169 | -58.41137 | 27 ft | 126 kts | 305° |
| 2026-05-08 21:54 | -34.55571 | -58.42204 | 281 ft | 167 kts | 299° |
| 2026-05-08 21:55 | -34.54882 | -58.43403 | 987 ft | 178 kts | 300° |
| 2026-05-08 21:55 | -34.54039 | -58.44548 | 1903 ft | 190 kts | 312° |
| 2026-05-08 21:55 | -34.52841 | -58.45463 | 2299 ft | 222 kts | 330° |
| 2026-05-08 21:56 | -34.49396 | -58.45448 | 3573 ft | 278 kts | 18° |
| 2026-05-08 21:56 | -34.47688 | -58.44262 | 4517 ft | 286 kts | 28° |
| 2026-05-08 21:56 | -34.45977 | -58.43010 | 5432 ft | 289 kts | 22° |
| 2026-05-08 21:56 | -34.44060 | -58.42361 | 6351 ft | 286 kts | 360° |
| 2026-05-08 21:57 | -34.42117 | -58.42655 | 7230 ft | 280 kts | 336° |
| 2026-05-08 21:57 | -34.40945 | -58.43357 | 7863 ft | 275 kts | 321° |
| 2026-05-08 21:57 | -34.39297 | -58.45602 | 9084 ft | 270 kts | 296° |
| 2026-05-08 21:57 | -34.38369 | -58.47588 | 9953 ft | 273 kts | 297° |
| 2026-05-08 21:58 | -34.37719 | -58.48977 | 10194 ft | 288 kts | 297° |
| 2026-05-08 21:58 | -34.36690 | -58.51171 | 10420 ft | 312 kts | 297° |
| 2026-05-08 21:58 | -34.35578 | -58.53531 | 10720 ft | 330 kts | 298° |
| 2026-05-08 21:58 | -34.34425 | -58.55966 | 11336 ft | 337 kts | 298° |
| 2026-05-08 21:59 | -34.33249 | -58.58437 | 12001 ft | 341 kts | 298° |
| 2026-05-08 21:59 | -34.32052 | -58.60941 | 12700 ft | 346 kts | 298° |
| 2026-05-08 21:59 | -34.30843 | -58.63470 | 13405 ft | 350 kts | 297° |
| 2026-05-08 21:59 | -34.29616 | -58.66034 | 14043 ft | 354 kts | 297° |
| 2026-05-08 22:00 | -34.28381 | -58.68620 | 14672 ft | 357 kts | 297° |
| 2026-05-08 22:00 | -34.27138 | -58.71226 | 15299 ft | 359 kts | 296° |
| 2026-05-08 22:00 | -34.25888 | -58.73848 | 15910 ft | 362 kts | 296° |
| 2026-05-08 22:00 | -34.24629 | -58.76495 | 16540 ft | 364 kts | 296° |
| 2026-05-08 22:01 | -34.23361 | -58.79159 | 17173 ft | 367 kts | 295° |
| 2026-05-08 22:01 | -34.22084 | -58.81836 | 17802 ft | 370 kts | 295° |
| 2026-05-08 22:01 | -34.20793 | -58.84537 | 18382 ft | 373 kts | 295° |
| 2026-05-08 22:01 | -34.19489 | -58.87255 | 18940 ft | 376 kts | 295° |
| 2026-05-08 22:02 | -34.18173 | -58.89994 | 19472 ft | 378 kts | 295° |
| 2026-05-08 22:02 | -34.16840 | -58.92761 | 20006 ft | 382 kts | 295° |
| 2026-05-08 22:02 | -34.15504 | -58.95538 | 20516 ft | 385 kts | 295° |
| 2026-05-08 22:02 | -34.14158 | -58.98340 | 21029 ft | 388 kts | 295° |
| 2026-05-08 22:03 | -34.12796 | -59.01178 | 21509 ft | 391 kts | 296° |
| 2026-05-08 22:03 | -34.11425 | -59.04036 | 21993 ft | 394 kts | 296° |
| 2026-05-08 22:03 | -34.10046 | -59.06905 | 22463 ft | 397 kts | 296° |
| 2026-05-08 22:03 | -34.08653 | -59.09801 | 22941 ft | 401 kts | 296° |
| 2026-05-08 22:04 | -34.07247 | -59.12714 | 23394 ft | 404 kts | 296° |
| 2026-05-08 22:04 | -34.05723 | -59.15593 | 23709 ft | 409 kts | 303° |
| 2026-05-08 22:04 | -34.03909 | -59.18261 | 23779 ft | 416 kts | 306° |
| 2026-05-08 22:04 | -34.02023 | -59.20972 | 23819 ft | 426 kts | 306° |
| 2026-05-08 22:05 | -34.00110 | -59.23722 | 23817 ft | 429 kts | 306° |
| 2026-05-08 22:05 | -33.98196 | -59.26474 | 23817 ft | 429 kts | 306° |
| 2026-05-08 22:05 | -33.96280 | -59.29230 | 23816 ft | 429 kts | 306° |
| 2026-05-08 22:05 | -33.94360 | -59.31993 | 23819 ft | 429 kts | 306° |
| 2026-05-08 22:06 | -33.92446 | -59.34745 | 23822 ft | 429 kts | 306° |
| 2026-05-08 22:06 | -33.90532 | -59.37495 | 23824 ft | 429 kts | 306° |
| 2026-05-08 22:06 | -33.88613 | -59.40250 | 23825 ft | 428 kts | 306° |
| 2026-05-08 22:06 | -33.86700 | -59.42997 | 23828 ft | 428 kts | 306° |
| 2026-05-08 22:07 | -33.84781 | -59.45748 | 23825 ft | 428 kts | 306° |
| 2026-05-08 22:07 | -33.82867 | -59.48483 | 23830 ft | 428 kts | 306° |
| 2026-05-08 22:07 | -33.80945 | -59.51224 | 23835 ft | 428 kts | 307° |
| 2026-05-08 22:07 | -33.79024 | -59.53959 | 23834 ft | 428 kts | 307° |
| 2026-05-08 22:08 | -33.77108 | -59.56693 | 23834 ft | 427 kts | 307° |
| 2026-05-08 22:08 | -33.75199 | -59.59421 | 23840 ft | 426 kts | 307° |
| 2026-05-08 22:08 | -33.73291 | -59.62148 | 23840 ft | 426 kts | 307° |
| 2026-05-08 22:08 | -33.71410 | -59.64831 | 23843 ft | 426 kts | 307° |
| 2026-05-08 22:09 | -33.69501 | -59.67547 | 23845 ft | 425 kts | 307° |
| 2026-05-08 22:09 | -33.67591 | -59.70263 | 23846 ft | 424 kts | 307° |
| 2026-05-08 22:09 | -33.65688 | -59.72965 | 23851 ft | 424 kts | 307° |
| 2026-05-08 22:09 | -33.63784 | -59.75663 | 23852 ft | 423 kts | 307° |
| 2026-05-08 22:10 | -33.61881 | -59.78360 | 23854 ft | 423 kts | 307° |
| 2026-05-08 22:10 | -33.59978 | -59.81057 | 23852 ft | 423 kts | 307° |
| 2026-05-08 22:10 | -33.58080 | -59.83746 | 23856 ft | 422 kts | 307° |
| 2026-05-08 22:10 | -33.56184 | -59.86433 | 23858 ft | 422 kts | 307° |
| 2026-05-08 22:11 | -33.54289 | -59.89113 | 23852 ft | 422 kts | 307° |
| 2026-05-08 22:11 | -33.52390 | -59.91790 | 23854 ft | 421 kts | 307° |
| 2026-05-08 22:11 | -33.50494 | -59.94460 | 23857 ft | 419 kts | 307° |
| 2026-05-08 22:11 | -33.48641 | -59.97072 | 23854 ft | 406 kts | 307° |
| 2026-05-08 22:12 | -33.46826 | -59.99627 | 23854 ft | 402 kts | 307° |
| 2026-05-08 22:12 | -33.45011 | -60.02179 | 23859 ft | 401 kts | 307° |
| 2026-05-08 22:12 | -33.43205 | -60.04718 | 23497 ft | 401 kts | 307° |
| 2026-05-08 22:12 | -33.41285 | -60.07129 | 22183 ft | 415 kts | 317° |
| 2026-05-08 22:13 | -33.38895 | -60.09217 | 21098 ft | 420 kts | 320° |
| 2026-05-08 22:13 | -33.36527 | -60.11254 | 20284 ft | 418 kts | 319° |
| 2026-05-08 22:13 | -33.34183 | -60.13279 | 19528 ft | 413 kts | 319° |
| 2026-05-08 22:13 | -33.31860 | -60.15284 | 18805 ft | 409 kts | 319° |
| 2026-05-08 22:14 | -33.29570 | -60.17256 | 18098 ft | 405 kts | 318° |
| 2026-05-08 22:14 | -33.27309 | -60.19202 | 17324 ft | 401 kts | 318° |
| 2026-05-08 22:14 | -33.25043 | -60.21153 | 16568 ft | 397 kts | 318° |
| 2026-05-08 22:14 | -33.22839 | -60.23052 | 15864 ft | 395 kts | 318° |
| 2026-05-08 22:15 | -33.20602 | -60.24977 | 15172 ft | 392 kts | 318° |
| 2026-05-08 22:15 | -33.18380 | -60.26884 | 14489 ft | 389 kts | 318° |
| 2026-05-08 22:15 | -33.16188 | -60.28761 | 13811 ft | 387 kts | 318° |
| 2026-05-08 22:15 | -33.14030 | -60.30604 | 13074 ft | 385 kts | 318° |
| 2026-05-08 22:16 | -33.11864 | -60.32453 | 12421 ft | 380 kts | 318° |
| 2026-05-08 22:16 | -33.09760 | -60.34244 | 12270 ft | 362 kts | 317° |
| 2026-05-08 22:16 | -33.07752 | -60.35947 | 12133 ft | 345 kts | 317° |
| 2026-05-08 22:16 | -33.05841 | -60.37567 | 11992 ft | 331 kts | 316° |
| 2026-05-08 22:17 | -33.03998 | -60.39134 | 11869 ft | 318 kts | 316° |
| 2026-05-08 22:17 | -33.02231 | -60.40642 | 11741 ft | 307 kts | 316° |
| 2026-05-08 22:17 | -33.00518 | -60.42107 | 11537 ft | 300 kts | 315° |
| 2026-05-08 22:17 | -32.98836 | -60.43549 | 11203 ft | 297 kts | 315° |
| 2026-05-08 22:18 | -32.97159 | -60.44989 | 10862 ft | 296 kts | 315° |
| 2026-05-08 22:18 | -32.95463 | -60.46440 | 10501 ft | 296 kts | 314° |
| 2026-05-08 22:18 | -32.93795 | -60.47867 | 10155 ft | 295 kts | 314° |
| 2026-05-08 22:18 | -32.92130 | -60.49288 | 9802 ft | 294 kts | 314° |
| 2026-05-08 22:19 | -32.90486 | -60.50688 | 9437 ft | 294 kts | 314° |
| 2026-05-08 22:19 | -32.88829 | -60.52096 | 9058 ft | 293 kts | 315° |
| 2026-05-08 22:19 | -32.87153 | -60.53518 | 8694 ft | 292 kts | 315° |
| 2026-05-08 22:19 | -32.85505 | -60.54918 | 8341 ft | 291 kts | 315° |
| 2026-05-08 22:20 | -32.83863 | -60.56315 | 7982 ft | 290 kts | 316° |
| 2026-05-08 22:20 | -32.82249 | -60.57685 | 7649 ft | 288 kts | 316° |
| 2026-05-08 22:20 | -32.80618 | -60.59068 | 7314 ft | 288 kts | 316° |
| 2026-05-08 22:20 | -32.78971 | -60.60464 | 6973 ft | 287 kts | 316° |
| 2026-05-08 22:21 | -32.77381 | -60.61810 | 6795 ft | 280 kts | 317° |
| 2026-05-08 22:21 | -32.75818 | -60.63124 | 6254 ft | 277 kts | 317° |
| 2026-05-08 22:21 | -32.74421 | -60.64705 | 5176 ft | 278 kts | 297° |
| 2026-05-08 22:21 | -32.73680 | -60.66801 | 4061 ft | 277 kts | 276° |
| 2026-05-08 22:22 | -32.73361 | -60.69062 | 3265 ft | 274 kts | 275° |
| 2026-05-08 22:22 | -32.73060 | -60.71208 | 3075 ft | 251 kts | 275° |
| 2026-05-08 22:22 | -32.72942 | -60.73150 | 3000 ft | 217 kts | 253° |
| 2026-05-08 22:22 | -32.73667 | -60.74431 | 2993 ft | 175 kts | 211° |
| 2026-05-08 22:23 | -32.74757 | -60.74807 | 2940 ft | 152 kts | 201° |
| 2026-05-08 22:23 | -32.75733 | -60.75085 | 2833 ft | 138 kts | 201° |
| 2026-05-08 22:23 | -32.76657 | -60.75323 | 2616 ft | 135 kts | 200° |
| 2026-05-08 22:23 | -32.77583 | -60.75549 | 2443 ft | 135 kts | 199° |
| 2026-05-08 22:24 | -32.78526 | -60.75772 | 1912 ft | 144 kts | 198° |
| 2026-05-08 22:24 | -32.79485 | -60.76033 | 1746 ft | 123 kts | 199° |
| 2026-05-08 22:24 | -32.80330 | -60.76205 | 2118 ft | 132 kts | 187° |
| 2026-05-08 22:24 | -32.81338 | -60.76335 | 2071 ft | 155 kts | 191° |
| 2026-05-08 22:25 | -32.82342 | -60.76536 | 1763 ft | 138 kts | 201° |
| 2026-05-08 22:25 | -32.83251 | -60.76795 | 1433 ft | 133 kts | 200° |
| 2026-05-08 22:25 | -32.84149 | -60.77026 | 1193 ft | 131 kts | 199° |
| 2026-05-08 22:25 | -32.85040 | -60.77242 | 973 ft | 132 kts | 197° |
| 2026-05-08 22:26 | -32.85931 | -60.77452 | 768 ft | 130 kts | 195° |
| 2026-05-08 22:26 | -32.86820 | -60.77657 | 587 ft | 130 kts | 194° |
| 2026-05-08 22:26 | -32.87704 | -60.77860 | 395 ft | 130 kts | 195° |
| 2026-05-08 22:26 | -32.88600 | -60.78066 | 224 ft | 132 kts | 195° |
| 2026-05-08 22:27 | -32.89490 | -60.78283 | 101 ft | 124 kts | 194° |
| 2026-05-08 22:27 | -32.90201 | -60.78454 | 95 ft | 91 kts | 191° |
| 2026-05-08 22:27 | -32.90732 | -60.78560 | 98 ft | 63 kts | 192° |
| 2026-05-08 22:27 | -32.91097 | -60.78633 | 101 ft | 45 kts | 192° |
| 2026-05-08 22:28 | -32.91359 | -60.78696 | 98 ft | 35 kts | 194° |
| 2026-05-08 22:28 | -32.91600 | -60.78749 | 96 ft | 34 kts | 175° |
| 2026-05-08 22:28 | -32.91767 | -60.78663 | 95 ft | 15 kts | 119° |
| 2026-05-08 22:28 | -32.91778 | -60.78608 | 97 ft | 0 kts | 113° |
| 2026-05-08 22:30 | -32.91784 | -60.78593 | 96 ft | 8 kts | 113° |
| 2026-05-08 22:30 | -32.91783 | -60.78479 | 97 ft | 17 kts | 76° |
| 2026-05-08 22:30 | -32.91753 | -60.78339 | 96 ft | 12 kts | 72° |
| 2026-05-08 22:31 | -32.91693 | -60.78274 | 96 ft | 13 kts | 27° |
| 2026-05-08 22:31 | -32.91608 | -60.78234 | 95 ft | 13 kts | 19° |
| 2026-05-08 22:31 | -32.91590 | -60.78167 | 96 ft | 8 kts | 111° |
| 2026-05-08 22:31 | -32.91603 | -60.78124 | 98 ft | 2 kts | 110° |
| 2026-05-08 22:32 | -32.91606 | -60.78117 | 98 ft | 2 kts | 110° |
| 2026-05-08 22:32 | -32.91606 | -60.78116 | 97 ft | 0 kts | 110° |